createdAt,value
2024-04-06T00:00:40.889Z,882.20
2024-04-06T00:01:40.743Z,892.70
2024-04-06T00:02:40.720Z,921.20
2024-04-06T00:03:40.726Z,926.10
2024-04-06T00:04:40.705Z,851.50
2024-04-06T00:05:40.710Z,975.20
2024-04-06T00:06:40.677Z,883.20
2024-04-06T00:07:40.694Z,833.50
2024-04-06T00:08:40.672Z,954.10
2024-04-06T00:09:41.690Z,1004.00
2024-04-06T00:10:40.662Z,977.50
2024-04-06T00:11:40.750Z,811.30
2024-04-06T00:12:40.688Z,932.30
2024-04-06T00:13:40.649Z,906.60
2024-04-06T00:14:40.640Z,893.40
2024-04-06T00:15:40.655Z,1037.40
2024-04-06T00:16:40.695Z,1045.70
2024-04-06T00:17:40.641Z,880.70
2024-04-06T00:18:40.626Z,943.00
2024-04-06T00:19:40.624Z,995.40
2024-04-06T00:20:40.608Z,929.30
2024-04-06T00:21:40.594Z,1003.10
2024-04-06T00:22:40.674Z,838.90
2024-04-06T00:23:40.596Z,894.10
2024-04-06T00:24:40.590Z,1011.20
2024-04-06T00:25:40.949Z,857.60
2024-04-06T00:26:40.656Z,1110.90
2024-04-06T00:27:40.576Z,891.20
2024-04-06T00:28:40.607Z,956.70
2024-04-06T00:29:40.550Z,974.90
2024-04-06T00:30:40.599Z,912.10
2024-04-06T00:31:41.534Z,1117.10
2024-04-06T00:32:40.575Z,972.80
2024-04-06T00:33:41.320Z,996.20
2024-04-06T00:34:40.542Z,986.50
2024-04-06T00:35:40.526Z,1073.90
2024-04-06T00:36:40.570Z,913.90
2024-04-06T00:37:40.504Z,891.10
2024-04-06T00:38:40.527Z,920.30
2024-04-06T00:39:40.514Z,1012.00
2024-04-06T00:40:40.493Z,926.60
2024-04-06T00:41:40.491Z,889.90
2024-04-06T00:42:40.498Z,988.10
2024-04-06T00:43:40.472Z,931.10
2024-04-06T00:44:40.464Z,996.70
2024-04-06T00:45:40.448Z,1023.90
2024-04-06T00:46:40.456Z,928.10
2024-04-06T00:47:40.455Z,1041.80
2024-04-06T00:48:40.443Z,965.80
2024-04-06T00:49:40.482Z,1051.30
2024-04-06T00:50:40.434Z,1063.90
2024-04-06T00:51:40.555Z,1093.40
2024-04-06T00:52:40.415Z,1006.00
2024-04-06T00:53:40.403Z,1100.80
2024-04-06T00:54:40.404Z,946.20
2024-04-06T00:55:40.433Z,922.40
2024-04-06T00:56:40.408Z,1017.80
2024-04-06T00:57:40.400Z,894.70
2024-04-06T00:58:40.372Z,922.60
2024-04-06T00:59:40.439Z,958.30
2024-04-06T01:00:40.438Z,990.50
2024-04-06T01:01:47.028Z,951.90
2024-04-06T01:02:42.387Z,986.30
2024-04-06T01:03:40.348Z,966.60
2024-04-06T01:04:40.351Z,1019.10
2024-04-06T01:05:40.340Z,950.30
2024-04-06T01:06:40.355Z,1086.60
2024-04-06T01:07:40.362Z,1035.00
2024-04-06T01:08:40.306Z,972.60
2024-04-06T01:09:40.315Z,995.50
2024-04-06T01:10:40.331Z,925.00
2024-04-06T01:11:40.336Z,1094.20
2024-04-06T01:12:40.282Z,934.00
2024-04-06T01:13:40.319Z,1111.50
2024-04-06T01:14:41.309Z,1048.00
2024-04-06T01:15:40.307Z,1082.80
2024-04-06T01:16:40.288Z,1079.70
2024-04-06T01:17:40.294Z,990.80
2024-04-06T01:18:40.247Z,1010.80
2024-04-06T01:19:40.250Z,1051.80
2024-04-06T01:20:40.251Z,1044.30
2024-04-06T01:21:40.295Z,1071.30
2024-04-06T01:22:40.241Z,1075.30
2024-04-06T01:23:40.239Z,1044.80
2024-04-06T01:24:40.228Z,1099.30
2024-04-06T01:25:40.214Z,1079.40
2024-04-06T01:26:40.240Z,1121.50
2024-04-06T01:27:40.201Z,1106.20
2024-04-06T01:28:40.832Z,1077.40
2024-04-06T01:29:40.182Z,1024.90
2024-04-06T01:30:40.187Z,915.30
2024-04-06T01:31:40.214Z,1070.40
2024-04-06T01:32:40.269Z,1115.80
2024-04-06T01:33:40.170Z,1068.90
2024-04-06T01:34:40.295Z,1043.70
2024-04-06T01:35:40.155Z,1042.10
2024-04-06T01:36:40.164Z,1065.70
2024-04-06T01:37:40.166Z,1064.10
2024-04-06T01:38:40.134Z,1077.90
2024-04-06T01:39:40.130Z,1044.40
2024-04-06T01:40:40.137Z,1028.70
2024-04-06T01:41:40.144Z,987.40
2024-04-06T01:42:41.131Z,1097.40
2024-04-06T01:43:40.259Z,1086.60
2024-04-06T01:44:40.141Z,1121.30
2024-04-06T01:45:40.198Z,1110.60
2024-04-06T01:46:40.089Z,1052.50
2024-04-06T01:47:40.104Z,1048.40
2024-04-06T01:48:40.104Z,1023.00
2024-04-06T01:49:40.081Z,1084.20
2024-04-06T01:50:40.085Z,899.20
2024-04-06T01:51:40.067Z,975.10
2024-04-06T01:52:40.061Z,961.10
2024-04-06T01:53:40.091Z,1019.90
2024-04-06T01:54:40.078Z,982.40
2024-04-06T01:55:40.049Z,1051.20
2024-04-06T01:56:40.035Z,1112.70
2024-04-06T01:57:40.020Z,1009.90
2024-04-06T01:58:40.045Z,900.70
2024-04-06T01:59:40.039Z,885.50
2024-04-06T02:00:40.055Z,885.80
2024-04-06T02:01:40.023Z,1096.40
2024-04-06T02:02:40.184Z,1069.10
2024-04-06T02:03:40.025Z,978.50
2024-04-06T02:04:40.021Z,933.90
2024-04-06T02:05:39.984Z,1024.80
2024-04-06T02:06:40.011Z,1005.60
2024-04-06T02:07:39.957Z,984.70
2024-04-06T02:08:39.948Z,919.20
2024-04-06T02:09:39.983Z,891.70
2024-04-06T02:10:39.988Z,863.90
2024-04-06T02:11:39.954Z,898.90
2024-04-06T02:12:39.927Z,978.10
2024-04-06T02:13:39.931Z,942.50
2024-04-06T02:14:39.925Z,932.10
2024-04-06T02:15:40.003Z,860.10
2024-04-06T02:16:39.907Z,869.40
2024-04-06T02:17:39.953Z,875.20
2024-04-06T02:18:39.906Z,1001.00
2024-04-06T02:19:40.077Z,927.90
2024-04-06T02:20:39.923Z,928.60
2024-04-06T02:21:39.912Z,978.90
2024-04-06T02:22:39.890Z,1031.80
2024-04-06T02:23:39.915Z,906.90
2024-04-06T02:24:39.888Z,889.50
2024-04-06T02:25:39.993Z,844.90
2024-04-06T02:26:39.939Z,831.20
2024-04-06T02:27:39.875Z,844.90
2024-04-06T02:28:40.839Z,951.60
2024-04-06T02:29:39.978Z,1000.90
2024-04-06T02:30:39.859Z,896.50
2024-04-06T02:31:39.819Z,861.00
2024-04-06T02:32:39.830Z,978.90
2024-04-06T02:33:39.887Z,889.10
2024-04-06T02:34:39.812Z,907.20
2024-04-06T02:35:39.873Z,910.90
2024-04-06T02:36:39.780Z,859.00
2024-04-06T02:37:39.801Z,857.10
2024-04-06T02:38:39.786Z,839.60
2024-04-06T02:39:39.785Z,808.10
2024-04-06T02:40:39.799Z,825.50
2024-04-06T02:41:39.763Z,878.80
2024-04-06T02:42:40.135Z,795.50
2024-04-06T02:43:39.743Z,845.80
2024-04-06T02:44:39.732Z,821.60
2024-04-06T02:45:39.770Z,812.80
2024-04-06T02:46:39.736Z,954.40
2024-04-06T02:47:39.783Z,884.90
2024-04-06T02:48:39.709Z,849.50
2024-04-06T02:49:39.697Z,855.00
2024-04-06T02:50:39.699Z,828.80
2024-04-06T02:51:39.695Z,844.90
2024-04-06T02:52:39.700Z,849.60
2024-04-06T02:53:39.669Z,876.90
2024-04-06T02:54:39.691Z,899.10
2024-04-06T02:55:39.689Z,900.00
2024-04-06T02:56:39.660Z,1112.80
2024-04-06T02:57:39.673Z,879.80
2024-04-06T02:58:39.671Z,876.30
2024-04-06T02:59:39.667Z,1006.80
2024-04-06T03:00:39.643Z,882.60
2024-04-06T03:01:39.626Z,924.80
2024-04-06T03:02:39.670Z,867.40
2024-04-06T03:03:39.643Z,1035.30
2024-04-06T03:04:39.613Z,834.60
2024-04-06T03:05:39.613Z,836.00
2024-04-06T03:06:39.609Z,968.50
2024-04-06T03:07:39.610Z,880.20
2024-04-06T03:08:39.613Z,850.20
2024-04-06T03:09:39.607Z,838.40
2024-04-06T03:10:39.602Z,877.40
2024-04-06T03:11:39.573Z,1076.60
2024-04-06T03:12:39.564Z,1013.60
2024-04-06T03:13:39.582Z,923.30
2024-04-06T03:14:39.557Z,878.60
2024-04-06T03:15:39.578Z,851.40
2024-04-06T03:16:39.553Z,917.20
2024-04-06T03:17:39.635Z,905.90
2024-04-06T03:18:39.527Z,838.30
2024-04-06T03:19:39.588Z,967.30
2024-04-06T03:20:39.532Z,867.20
2024-04-06T03:21:39.517Z,856.90
2024-04-06T03:22:39.504Z,855.90
2024-04-06T03:23:39.506Z,882.60
2024-04-06T03:24:39.552Z,943.20
2024-04-06T03:25:39.507Z,918.50
2024-04-06T03:26:39.485Z,1018.00
2024-04-06T03:27:39.492Z,851.80
2024-04-06T03:28:39.494Z,837.70
2024-04-06T03:29:39.459Z,874.90
2024-04-06T03:30:39.495Z,949.60
2024-04-06T03:31:39.457Z,900.20
2024-04-06T03:32:39.548Z,1106.40
2024-04-06T03:33:39.467Z,1012.00
2024-04-06T03:34:39.467Z,989.40
2024-04-06T03:35:39.461Z,946.90
2024-04-06T03:36:39.429Z,1084.40
2024-04-06T03:37:39.438Z,934.10
2024-04-06T03:38:39.428Z,1020.60
2024-04-06T03:39:39.498Z,967.80
2024-04-06T03:40:39.390Z,892.60
2024-04-06T03:41:39.420Z,941.50
2024-04-06T03:42:39.388Z,997.70
2024-04-06T03:43:39.416Z,1066.80
2024-04-06T03:44:39.385Z,976.80
2024-04-06T03:45:39.451Z,983.00
2024-04-06T03:46:39.378Z,1079.30
2024-04-06T03:47:39.472Z,864.10
2024-04-06T03:48:39.379Z,947.30
2024-04-06T03:49:39.366Z,969.50
2024-04-06T03:50:39.349Z,936.80
2024-04-06T03:51:39.342Z,990.90
2024-04-06T03:52:39.334Z,944.60
2024-04-06T03:53:39.340Z,868.20
2024-04-06T03:54:39.320Z,925.50
2024-04-06T03:55:39.324Z,881.50
2024-04-06T03:56:39.338Z,894.80
2024-04-06T03:57:39.329Z,1057.40
2024-04-06T03:58:39.303Z,915.80
2024-04-06T03:59:39.293Z,879.80
2024-04-06T04:00:39.393Z,898.70
2024-04-06T04:01:39.310Z,935.70
2024-04-06T04:02:39.300Z,896.40
2024-04-06T04:03:39.413Z,915.60
2024-04-06T04:04:39.350Z,933.80
2024-04-06T04:05:39.395Z,903.20
2024-04-06T04:06:39.294Z,1010.80
2024-04-06T04:07:39.277Z,943.60
2024-04-06T04:08:39.268Z,1074.80
2024-04-06T04:09:39.303Z,885.00
2024-04-06T04:10:40.326Z,937.20
2024-04-06T04:11:39.248Z,1018.90
2024-04-06T04:12:40.301Z,1116.00
2024-04-06T04:13:39.226Z,1123.50
2024-04-06T04:14:39.221Z,1037.50
2024-04-06T04:15:39.254Z,1022.10
2024-04-06T04:16:39.328Z,1103.10
2024-04-06T04:17:39.399Z,1134.30
2024-04-06T04:18:39.191Z,1084.80
2024-04-06T04:19:39.163Z,1030.80
2024-04-06T04:20:39.915Z,1061.70
2024-04-06T04:21:39.225Z,1026.10
2024-04-06T04:22:40.207Z,995.00
2024-04-06T04:23:39.249Z,1039.00
2024-04-06T04:24:39.185Z,1085.30
2024-04-06T04:25:39.142Z,927.20
2024-04-06T04:26:39.214Z,1063.20
2024-04-06T04:27:39.144Z,1104.40
2024-04-06T04:28:39.123Z,1052.60
2024-04-06T04:29:39.124Z,1084.10
2024-04-06T04:30:39.116Z,1106.50
2024-04-06T04:31:39.085Z,1125.60
2024-04-06T04:32:39.256Z,1078.10
2024-04-06T04:33:39.104Z,1099.70
2024-04-06T04:34:40.242Z,1038.70
2024-04-06T04:35:39.107Z,1051.10
2024-04-06T04:36:39.954Z,843.30
2024-04-06T04:37:39.202Z,877.50
2024-04-06T04:38:39.121Z,924.00
2024-04-06T04:39:39.063Z,821.50
2024-04-06T04:40:39.052Z,904.90
2024-04-06T04:41:39.070Z,1102.90
2024-04-06T04:42:39.091Z,915.60
2024-04-06T04:43:39.034Z,1004.00
2024-04-06T04:44:41.491Z,847.40
2024-04-06T04:45:39.042Z,766.60
2024-04-06T04:46:39.038Z,794.50
2024-04-06T04:47:39.180Z,827.30
2024-04-06T04:48:39.015Z,843.50
2024-04-06T04:49:39.106Z,818.10
2024-04-06T04:50:39.015Z,813.30
2024-04-06T04:51:38.990Z,731.40
2024-04-06T04:52:38.992Z,769.20
2024-04-06T04:53:39.016Z,764.00
2024-04-06T04:54:38.985Z,767.60
2024-04-06T04:55:38.988Z,796.30
2024-04-06T04:56:38.969Z,753.60
2024-04-06T04:57:38.962Z,819.30
2024-04-06T04:58:39.026Z,746.80
2024-04-06T04:59:38.973Z,832.30
2024-04-06T05:00:38.972Z,815.50
2024-04-06T05:01:38.935Z,740.70
2024-04-06T05:02:38.944Z,681.00
2024-04-06T05:03:38.935Z,725.70
2024-04-06T05:04:38.942Z,697.60
2024-04-06T05:05:38.919Z,863.10
2024-04-06T05:06:39.912Z,774.60
2024-04-06T05:07:38.919Z,725.20
2024-04-06T05:08:38.919Z,760.70
2024-04-06T05:09:38.903Z,776.20
2024-04-06T05:10:38.902Z,808.90
2024-04-06T05:11:38.905Z,776.10
2024-04-06T05:12:38.886Z,771.20
2024-04-06T05:13:39.962Z,776.40
2024-04-06T05:14:38.867Z,735.30
2024-04-06T05:15:38.878Z,745.20
2024-04-06T05:16:38.860Z,720.80
2024-04-06T05:17:38.982Z,758.90
2024-04-06T05:18:38.896Z,734.60
2024-04-06T05:19:38.869Z,663.10
2024-04-06T05:20:38.821Z,740.20
2024-04-06T05:21:38.903Z,746.30
2024-04-06T05:22:38.831Z,762.70
2024-04-06T05:23:38.842Z,768.90
2024-04-06T05:24:38.808Z,702.70
2024-04-06T05:25:38.900Z,726.20
2024-04-06T05:26:38.834Z,729.20
2024-04-06T05:27:41.542Z,751.50
2024-04-06T05:28:39.867Z,727.60
2024-04-06T05:29:38.763Z,730.30
2024-04-06T05:30:38.786Z,756.50
2024-04-06T05:31:38.768Z,708.30
2024-04-06T05:32:38.799Z,703.30
2024-04-06T05:33:38.766Z,829.60
2024-04-06T05:34:38.791Z,685.20
2024-04-06T05:35:38.777Z,790.90
2024-04-06T05:36:38.718Z,801.00
2024-04-06T05:37:39.729Z,693.10
2024-04-06T05:38:38.744Z,720.90
2024-04-06T05:39:38.746Z,779.10
2024-04-06T05:40:38.720Z,702.90
2024-04-06T05:41:38.765Z,693.80
2024-04-06T05:42:40.463Z,742.50
2024-04-06T05:43:38.669Z,711.90
2024-04-06T05:44:38.784Z,608.80
2024-04-06T05:45:38.754Z,656.70
2024-04-06T05:46:38.651Z,723.00
2024-04-06T05:47:38.698Z,668.40
2024-04-06T05:48:38.690Z,734.70
2024-04-06T05:49:38.666Z,744.60
2024-04-06T05:50:38.694Z,671.40
2024-04-06T05:51:38.654Z,806.70
2024-04-06T05:52:38.613Z,807.50
2024-04-06T05:53:38.649Z,695.50
2024-04-06T05:54:38.606Z,796.50
2024-04-06T05:55:38.660Z,754.00
2024-04-06T05:56:38.698Z,812.90
2024-04-06T05:57:38.597Z,667.80
2024-04-06T05:58:38.575Z,852.10
2024-04-06T05:59:38.621Z,734.70
2024-04-06T06:00:38.556Z,716.10
2024-04-06T06:01:38.571Z,683.80
2024-04-06T06:02:38.578Z,689.90
2024-04-06T06:03:38.576Z,726.60
2024-04-06T06:04:38.538Z,715.30
2024-04-06T06:05:38.595Z,792.60
2024-04-06T06:06:39.346Z,819.40
2024-04-06T06:07:38.629Z,807.90
2024-04-06T06:08:38.554Z,902.30
2024-04-06T06:09:38.537Z,999.50
2024-04-06T06:10:38.506Z,794.20
2024-04-06T06:11:38.561Z,710.30
2024-04-06T06:12:38.488Z,870.20
2024-04-06T06:13:38.482Z,912.90
2024-04-06T06:14:38.559Z,775.10
2024-04-06T06:15:39.505Z,728.10
2024-04-06T06:16:39.475Z,842.30
2024-04-06T06:17:38.461Z,877.20
2024-04-06T06:18:38.485Z,1037.00
2024-04-06T06:19:38.476Z,814.90
2024-04-06T06:20:38.513Z,818.10
2024-04-06T06:21:38.459Z,900.50
2024-04-06T06:22:38.425Z,766.10
2024-04-06T06:23:38.514Z,851.50
2024-04-06T06:24:38.480Z,839.40
2024-04-06T06:25:38.420Z,809.40
2024-04-06T06:26:38.470Z,814.90
2024-04-06T06:27:38.436Z,894.80
2024-04-06T06:28:38.526Z,755.00
2024-04-06T06:29:38.524Z,773.60
2024-04-06T06:30:38.423Z,909.90
2024-04-06T06:31:38.390Z,769.00
2024-04-06T06:32:38.413Z,759.00
2024-04-06T06:33:38.420Z,796.90
2024-04-06T06:34:38.375Z,874.00
2024-04-06T06:37:52.886Z,924.10
2024-04-06T06:40:41.184Z,1055.40
2024-04-06T06:40:41.654Z,1118.10
2024-04-06T06:41:40.794Z,1051.90
2024-04-06T06:42:38.301Z,995.50
2024-04-06T06:43:38.314Z,1132.90
2024-04-06T06:44:38.366Z,1129.60
2024-04-06T06:45:38.297Z,1070.20
2024-04-06T06:46:38.273Z,1108.90
2024-04-06T06:47:38.308Z,1134.70
2024-04-06T06:48:38.286Z,1120.30
2024-04-06T06:49:38.300Z,1113.50
2024-04-06T06:50:38.347Z,1097.00
2024-04-06T06:51:38.246Z,1116.90
2024-04-06T06:52:38.248Z,1052.80
2024-04-06T06:53:38.281Z,989.40
2024-04-06T06:54:41.406Z,998.60
2024-04-06T06:55:38.228Z,901.90
2024-04-06T06:56:38.304Z,829.50
2024-04-06T06:57:38.227Z,818.40
2024-04-06T06:58:38.199Z,926.00
2024-04-06T07:00:39.248Z,867.70
2024-04-06T07:01:39.855Z,855.60
2024-04-06T07:02:39.192Z,878.80
2024-04-06T07:03:38.172Z,853.60
2024-04-06T07:04:38.173Z,917.70
2024-04-06T07:05:38.188Z,788.50
2024-04-06T07:07:39.215Z,754.60
2024-04-06T07:08:38.149Z,744.40
2024-04-06T07:09:38.166Z,770.60
2024-04-06T07:10:38.152Z,774.70
2024-04-06T07:11:38.132Z,761.30
2024-04-06T07:12:38.114Z,804.70
2024-04-06T07:13:38.136Z,709.00
2024-04-06T07:14:38.124Z,801.70
2024-04-06T07:15:38.097Z,764.60
2024-04-06T07:16:38.314Z,734.50
2024-04-06T07:17:38.094Z,741.40
2024-04-06T07:18:38.093Z,673.80
2024-04-06T07:19:38.111Z,733.90
2024-04-06T07:20:38.076Z,753.00
2024-04-06T07:21:38.105Z,664.70
2024-04-06T07:22:38.096Z,635.70
2024-04-06T07:23:38.058Z,577.90
2024-04-06T07:24:38.082Z,718.50
2024-04-06T07:25:38.033Z,711.90
2024-04-06T07:26:38.073Z,827.70
2024-04-06T07:27:38.029Z,808.30
2024-04-06T07:28:38.027Z,647.40
2024-04-06T07:29:38.076Z,781.50
2024-04-06T07:30:37.999Z,841.00
2024-04-06T07:31:38.176Z,828.10
2024-04-06T07:32:37.991Z,842.40
2024-04-06T07:33:38.004Z,838.40
2024-04-06T07:34:37.970Z,823.70
2024-04-06T07:35:37.984Z,707.60
2024-04-06T07:36:38.001Z,728.30
2024-04-06T07:37:37.969Z,489.30
2024-04-06T07:39:19.856Z,567.80
2024-04-06T07:39:39.956Z,473.80
2024-04-06T07:40:37.950Z,470.50
2024-04-06T07:41:37.936Z,487.70
2024-04-06T07:42:37.956Z,539.60
2024-04-06T07:43:37.935Z,495.90
2024-04-06T07:44:37.926Z,374.90
2024-04-06T07:45:37.903Z,463.50
2024-04-06T07:46:37.919Z,459.30
2024-04-06T07:47:37.908Z,493.60
2024-04-06T07:48:37.919Z,528.40
2024-04-06T07:49:37.890Z,544.50
2024-04-06T07:50:37.879Z,517.80
2024-04-06T07:51:37.888Z,447.70
2024-04-06T07:52:37.870Z,499.50
2024-04-06T07:53:37.929Z,498.60
2024-04-06T07:54:37.863Z,540.80
2024-04-06T07:55:37.863Z,595.60
2024-04-06T07:56:37.857Z,509.70
2024-04-06T07:57:37.861Z,499.50
2024-04-06T07:58:37.831Z,534.30
2024-04-06T07:59:37.946Z,630.10
2024-04-06T08:00:37.821Z,600.20
2024-04-06T08:01:37.808Z,583.50
2024-04-06T08:02:37.814Z,461.30
2024-04-06T08:03:37.817Z,497.10
2024-04-06T08:04:37.848Z,512.80
2024-04-06T08:05:37.798Z,573.40
2024-04-06T08:06:37.792Z,544.40
2024-04-06T08:07:37.792Z,531.00
2024-04-06T08:08:37.791Z,587.30
2024-04-06T08:09:37.824Z,549.30
2024-04-06T08:10:37.783Z,563.60
2024-04-06T08:11:37.771Z,525.90
2024-04-06T08:12:38.061Z,531.30
2024-04-06T08:13:37.768Z,643.80
2024-04-06T08:14:37.732Z,545.10
2024-04-06T08:15:37.738Z,698.80
2024-04-06T08:16:37.725Z,568.20
2024-04-06T08:17:37.749Z,737.10
2024-04-06T08:18:37.701Z,590.60
2024-04-06T08:19:37.737Z,763.30
2024-04-06T08:20:37.732Z,758.90
2024-04-06T08:21:37.716Z,656.80
2024-04-06T08:22:37.690Z,949.00
2024-04-06T08:23:37.675Z,881.30
2024-04-06T08:24:37.680Z,859.20
2024-04-06T08:25:37.666Z,844.80
2024-04-06T08:26:37.652Z,816.80
2024-04-06T08:27:37.664Z,864.40
2024-04-06T08:28:37.643Z,796.90
2024-04-06T08:29:37.653Z,751.40
2024-04-06T08:30:37.603Z,919.50
2024-04-06T08:31:37.658Z,808.70
2024-04-06T08:32:37.625Z,797.30
2024-04-06T08:33:37.634Z,857.30
2024-04-06T08:34:37.639Z,656.70
2024-04-06T08:35:37.608Z,869.10
2024-04-06T08:36:37.628Z,802.00
2024-04-06T08:37:37.605Z,895.60
2024-04-06T08:38:37.598Z,779.40
2024-04-06T08:39:37.601Z,859.20
2024-04-06T08:40:37.645Z,736.20
2024-04-06T08:41:37.589Z,760.00
2024-04-06T08:42:37.573Z,713.80
2024-04-06T08:43:37.573Z,753.20
2024-04-06T08:44:37.553Z,767.10
2024-04-06T08:45:37.589Z,766.80
2024-04-06T08:46:37.559Z,241.40
2024-04-06T08:47:37.598Z,108.70
2024-04-06T08:48:37.531Z,194.90
2024-04-06T08:49:37.541Z,244.50
2024-04-06T08:50:37.549Z,388.90
2024-04-06T08:51:37.513Z,474.60
2024-04-06T08:52:37.488Z,469.50
2024-04-06T08:53:37.507Z,505.00
2024-04-06T08:54:37.488Z,563.40
2024-04-06T08:55:37.473Z,574.90
2024-04-06T08:56:37.476Z,573.00
2024-04-06T08:57:37.452Z,570.00
2024-04-06T08:58:37.477Z,502.30
2024-04-06T08:59:37.457Z,554.00
2024-04-06T09:00:37.446Z,563.30
2024-04-06T09:01:37.476Z,637.20
2024-04-06T09:02:37.445Z,556.30
2024-04-06T09:03:37.442Z,562.80
2024-04-06T09:04:37.417Z,561.70
2024-04-06T09:05:37.412Z,583.30
2024-04-06T09:06:37.432Z,521.50
2024-04-06T09:07:37.407Z,597.70
2024-04-06T09:08:37.403Z,545.40
2024-04-06T09:09:37.400Z,579.70
2024-04-06T09:10:37.406Z,569.10
2024-04-06T09:11:37.369Z,562.60
2024-04-06T09:12:37.391Z,605.80
2024-04-06T09:13:37.374Z,629.80
2024-04-06T09:14:37.385Z,580.70
2024-04-06T09:15:37.442Z,581.70
2024-04-06T09:16:37.406Z,565.90
2024-04-06T09:17:37.451Z,622.80
2024-04-06T09:18:37.432Z,593.70
2024-04-06T09:19:37.409Z,649.00
2024-04-06T09:20:37.338Z,633.20
2024-04-06T09:21:37.373Z,638.20
2024-04-06T09:22:37.330Z,694.80
2024-04-06T09:23:37.431Z,672.40
2024-04-06T09:24:37.326Z,669.10
2024-04-06T09:25:37.298Z,655.60
2024-04-06T09:26:37.329Z,644.70
2024-04-06T09:27:37.268Z,627.10
2024-04-06T09:28:37.472Z,681.20
2024-04-06T09:29:37.345Z,676.40
2024-04-06T09:30:37.327Z,51.20
2024-04-06T09:31:37.338Z,10.30
2024-04-06T09:32:37.279Z,9.40
2024-04-06T09:33:37.240Z,8.00
2024-04-06T09:34:37.483Z,7.50
2024-04-06T09:35:37.336Z,7.80
2024-04-06T09:36:37.326Z,9.60
2024-04-06T09:37:37.278Z,9.30
2024-04-06T09:38:37.245Z,9.30
2024-04-06T09:39:37.426Z,9.30
2024-04-06T09:40:37.212Z,10.00
2024-04-06T09:41:37.192Z,9.30
2024-04-06T09:42:37.209Z,13.90
2024-04-06T09:43:37.186Z,12.60
2024-04-06T09:44:37.187Z,10.10
2024-04-06T09:45:37.251Z,9.10
2024-04-06T09:46:37.162Z,10.60
2024-04-06T09:47:37.181Z,14.90
2024-04-06T09:48:37.194Z,13.10
2024-04-06T09:49:37.222Z,9.30
2024-04-06T09:50:37.221Z,8.50
2024-04-06T09:51:37.129Z,7.70
2024-04-06T09:52:37.160Z,12.40
2024-04-06T09:53:37.138Z,12.00
2024-04-06T09:54:37.115Z,11.70
2024-04-06T09:55:37.129Z,16.10
2024-04-06T09:56:37.132Z,13.90
2024-04-06T09:57:37.105Z,10.60
2024-04-06T09:58:37.089Z,10.00
2024-04-06T09:59:37.094Z,15.10
2024-04-06T10:00:37.143Z,16.70
2024-04-06T10:01:37.080Z,10.70
2024-04-06T10:02:37.078Z,11.30
2024-04-06T10:03:37.064Z,13.50
2024-04-06T10:04:37.068Z,11.30
2024-04-06T10:05:37.087Z,10.20
2024-04-06T10:06:37.408Z,15.30
2024-04-06T10:07:37.061Z,13.30
2024-04-06T10:08:37.079Z,17.50
2024-04-06T10:09:37.047Z,16.10
2024-04-06T10:10:37.137Z,21.30
2024-04-06T10:11:37.067Z,17.40
2024-04-06T10:12:37.061Z,21.80
2024-04-06T10:13:37.038Z,14.90
2024-04-06T10:14:37.033Z,15.50
2024-04-06T10:15:37.060Z,13.10
2024-04-06T10:16:37.030Z,10.10
2024-04-06T10:17:37.025Z,12.70
2024-04-06T10:18:37.075Z,17.20
2024-04-06T10:19:36.986Z,20.20
2024-04-06T10:20:36.985Z,16.60
2024-04-06T10:21:36.999Z,11.10
2024-04-06T10:22:36.996Z,12.60
2024-04-06T10:23:37.021Z,28.50
2024-04-06T10:24:36.966Z,24.10
2024-04-06T10:25:36.983Z,27.70
2024-04-06T10:26:36.974Z,28.70
2024-04-06T10:27:36.957Z,25.70
2024-04-06T10:28:36.953Z,20.10
2024-04-06T10:29:36.973Z,30.60
2024-04-06T10:30:36.938Z,19.40
2024-04-06T10:31:46.017Z,14.50
2024-04-06T10:32:38.908Z,16.50
2024-04-06T10:33:36.928Z,13.40
2024-04-06T10:34:46.132Z,15.10
2024-04-06T10:35:38.892Z,19.90
2024-04-06T10:36:36.878Z,26.90
2024-04-06T10:37:36.876Z,19.30
2024-04-06T10:38:36.910Z,19.40
2024-04-06T10:39:36.881Z,25.30
2024-04-06T10:40:36.832Z,26.20
2024-04-06T10:41:36.852Z,28.60
2024-04-06T10:42:36.836Z,23.00
2024-04-06T10:43:36.855Z,29.50
2024-04-06T10:44:36.825Z,29.60
2024-04-06T10:45:36.816Z,28.00
2024-04-06T10:46:36.839Z,26.20
2024-04-06T10:47:36.808Z,47.20
2024-04-06T10:48:36.816Z,39.40
2024-04-06T10:49:36.826Z,46.50
2024-04-06T10:50:36.847Z,45.40
2024-04-06T10:51:36.834Z,34.40
2024-04-06T10:52:36.769Z,42.00
2024-04-06T10:53:36.836Z,36.50
2024-04-06T10:54:38.939Z,43.00
2024-04-06T10:55:37.823Z,57.70
2024-04-06T10:56:36.777Z,32.90
2024-04-06T10:57:36.854Z,37.20
2024-04-06T10:58:36.757Z,26.20
2024-04-06T10:59:36.757Z,38.50
2024-04-06T11:00:38.215Z,31.20
2024-04-06T11:01:37.760Z,37.40
2024-04-06T11:02:36.727Z,41.50
2024-04-06T11:03:36.751Z,41.80
2024-04-06T11:04:36.695Z,58.10
2024-04-06T11:05:36.836Z,75.30
2024-04-06T11:06:39.148Z,54.10
2024-04-06T11:07:37.674Z,46.10
2024-04-06T11:08:36.714Z,57.50
2024-04-06T11:09:37.408Z,71.10
2024-04-06T11:10:36.710Z,108.30
2024-04-06T11:11:36.981Z,96.80
2024-04-06T11:12:38.994Z,126.40
2024-04-06T11:13:37.660Z,164.00
2024-04-06T11:14:36.675Z,95.60
2024-04-06T11:15:36.671Z,169.50
2024-04-06T11:16:36.654Z,106.40
2024-04-06T11:17:36.622Z,195.80
2024-04-06T11:18:36.679Z,195.40
2024-04-06T11:19:36.616Z,260.20
2024-04-06T11:20:36.626Z,118.00
2024-04-06T11:21:36.655Z,133.50
2024-04-06T11:22:36.603Z,156.40
2024-04-06T11:23:36.675Z,187.50
2024-04-06T11:24:38.812Z,201.00
2024-04-06T11:25:37.588Z,200.40
2024-04-06T11:26:36.611Z,146.80
2024-04-06T11:27:36.579Z,175.30
2024-04-06T11:28:36.596Z,154.80
2024-04-06T11:29:36.588Z,146.20
2024-04-06T11:30:36.557Z,115.00
2024-04-06T11:31:36.580Z,102.40
2024-04-06T11:32:36.595Z,253.70
2024-04-06T11:33:36.923Z,238.60
2024-04-06T11:34:36.582Z,218.90
2024-04-06T11:35:36.569Z,286.90
2024-04-06T11:36:36.536Z,293.30
2024-04-06T11:37:36.537Z,153.60
2024-04-06T11:38:36.584Z,286.40
2024-04-06T11:39:36.530Z,229.60
2024-04-06T11:40:36.536Z,233.10
2024-04-06T11:41:36.547Z,117.60
2024-04-06T11:42:36.510Z,168.20
2024-04-06T11:43:36.496Z,166.70
2024-04-06T11:44:36.487Z,208.60
2024-04-06T11:45:36.535Z,256.20
2024-04-06T11:46:36.482Z,99.70
2024-04-06T11:47:36.504Z,248.90
2024-04-06T11:48:36.477Z,301.90
2024-04-06T11:49:36.523Z,222.50
2024-04-06T11:50:36.457Z,125.70
2024-04-06T11:51:36.498Z,141.50
2024-04-06T11:52:36.489Z,167.90
2024-04-06T11:53:36.451Z,172.60
2024-04-06T11:54:36.472Z,272.30
2024-04-06T11:55:36.457Z,339.80
2024-04-06T11:56:36.456Z,207.30
2024-04-06T11:57:36.436Z,198.10
2024-04-06T11:58:36.427Z,316.40
2024-04-06T11:59:36.435Z,305.60
2024-04-06T12:00:36.434Z,180.60
2024-04-06T12:01:37.018Z,324.60
2024-04-06T12:02:36.417Z,209.60
2024-04-06T12:03:36.454Z,188.80
2024-04-06T12:04:36.409Z,188.70
2024-04-06T12:05:36.430Z,169.80
2024-04-06T12:06:36.426Z,259.40
2024-04-06T12:07:36.444Z,285.00
2024-04-06T12:08:36.374Z,252.70
2024-04-06T12:09:36.411Z,224.60
2024-04-06T12:10:36.382Z,286.60
2024-04-06T12:11:36.386Z,316.80
2024-04-06T12:12:36.367Z,285.20
2024-04-06T12:13:37.343Z,374.40
2024-04-06T12:14:36.378Z,276.90
2024-04-06T12:15:36.345Z,401.90
2024-04-06T12:16:36.334Z,522.00
2024-04-06T12:17:36.343Z,513.10
2024-04-06T12:18:36.355Z,348.60
2024-04-06T12:19:36.442Z,296.10
2024-04-06T12:20:36.340Z,384.00
2024-04-06T12:21:36.330Z,355.00
2024-04-06T12:22:36.318Z,373.90
2024-04-06T12:23:36.325Z,406.80
2024-04-06T12:24:36.294Z,160.30
2024-04-06T12:25:36.290Z,160.10
2024-04-06T12:26:36.929Z,102.50
2024-04-06T12:27:36.319Z,92.30
2024-04-06T12:28:36.374Z,121.30
2024-04-06T12:29:36.298Z,269.80
2024-04-06T12:30:36.256Z,235.50
2024-04-06T12:31:36.254Z,222.40
2024-04-06T12:32:37.250Z,291.70
2024-04-06T12:33:36.310Z,178.40